<?xml version="1.0" encoding="utf-8"?><gpx creator="Garmin Desktop App" version="1.1" xsi:schemaLocation="http://www.topografix.com/GPX/1/1 http://www.topografix.com/GPX/1/1/gpx.xsd http://www.garmin.com/xmlschemas/WaypointExtension/v1 http://www8.garmin.com/xmlschemas/WaypointExtensionv1.xsd http://www.garmin.com/xmlschemas/TrackPointExtension/v1 http://www.garmin.com/xmlschemas/TrackPointExtensionv1.xsd http://www.garmin.com/xmlschemas/GpxExtensions/v3 http://www8.garmin.com/xmlschemas/GpxExtensionsv3.xsd http://www.garmin.com/xmlschemas/ActivityExtension/v1 http://www8.garmin.com/xmlschemas/ActivityExtensionv1.xsd http://www.garmin.com/xmlschemas/AdventuresExtensions/v1 http://www8.garmin.com/xmlschemas/AdventuresExtensionv1.xsd http://www.garmin.com/xmlschemas/PressureExtension/v1 http://www.garmin.com/xmlschemas/PressureExtensionv1.xsd http://www.garmin.com/xmlschemas/TripExtensions/v1 http://www.garmin.com/xmlschemas/TripExtensionsv1.xsd http://www.garmin.com/xmlschemas/TripMetaDataExtensions/v1 http://www.garmin.com/xmlschemas/TripMetaDataExtensionsv1.xsd http://www.garmin.com/xmlschemas/ViaPointTransportationModeExtensions/v1 http://www.garmin.com/xmlschemas/ViaPointTransportationModeExtensionsv1.xsd http://www.garmin.com/xmlschemas/CreationTimeExtensions/v1 http://www.garmin.com/xmlschemas/CreationTimeExtensionsv1.xsd" xmlns="http://www.topografix.com/GPX/1/1" xmlns:xsi="http://www.w3.org/2001/XMLSchema-instance" xmlns:wptx1="http://www.garmin.com/xmlschemas/WaypointExtension/v1" xmlns:gpxtrx="http://www.garmin.com/xmlschemas/GpxExtensions/v3" xmlns:gpxtpx="http://www.garmin.com/xmlschemas/TrackPointExtension/v1" xmlns:gpxx="http://www.garmin.com/xmlschemas/GpxExtensions/v3" xmlns:trp="http://www.garmin.com/xmlschemas/TripExtensions/v1" xmlns:adv="http://www.garmin.com/xmlschemas/AdventuresExtensions/v1" xmlns:prs="http://www.garmin.com/xmlschemas/PressureExtension/v1" xmlns:tmd="http://www.garmin.com/xmlschemas/TripMetaDataExtensions/v1" xmlns:vptm="http://www.garmin.com/xmlschemas/ViaPointTransportationModeExtensions/v1" xmlns:ctx="http://www.garmin.com/xmlschemas/CreationTimeExtension/v1">

  <metadata>
    <link href="http://www.garmin.com">
      <text>Garmin International</text>
    </link>
    <time>2014-04-13T17:33:45Z</time>
    <bounds maxlat="48.776404028758407" maxlon="9.094943040981889" minlat="48.74093902297318" minlon="9.057595962658525" />
  </metadata>

  <trk>
    <name>Natura Trails NFH Krummbachtal zum NFH Buesnauer Rain</name>
    <extensions>
      <gpxx:TrackExtension>
        <gpxx:DisplayColor>DarkGray</gpxx:DisplayColor>
      </gpxx:TrackExtension>
    </extensions>
    <trkseg>
      <trkpt lat="48.740951009094715" lon="9.083211980760098">
        <ele>461.56999999999999</ele>
        <time>2014-04-13T07:40:02Z</time>
      </trkpt>
      <trkpt lat="48.740990990772843" lon="9.083342989906669">
        <ele>464.93000000000001</ele>
        <time>2014-04-13T07:46:57Z</time>
      </trkpt>
      <trkpt lat="48.74093902297318" lon="9.083225978538394">
        <ele>465.42000000000002</ele>
        <time>2014-04-13T07:50:36Z</time>
      </trkpt>
      <trkpt lat="48.741200035437942" lon="9.083311976864934">
        <ele>470.69999999999999</ele>
        <time>2014-04-13T07:59:34Z</time>
      </trkpt>
      <trkpt lat="48.740971963852644" lon="9.083444997668266">
        <ele>473.58999999999997</ele>
        <time>2014-04-13T08:06:54Z</time>
      </trkpt>
      <trkpt lat="48.740943968296051" lon="9.083217009902">
        <ele>473.58999999999997</ele>
        <time>2014-04-13T08:13:13Z</time>
      </trkpt>
      <trkpt lat="48.741422994062304" lon="9.083120031282306">
        <ele>470.22000000000003</ele>
        <time>2014-04-13T08:15:22Z</time>
      </trkpt>
      <trkpt lat="48.742154985666275" lon="9.082517037168145">
        <ele>471.18000000000001</ele>
        <time>2014-04-13T08:16:41Z</time>
      </trkpt>
      <trkpt lat="48.742380039766431" lon="9.082203973084688">
        <ele>467.81999999999999</ele>
        <time>2014-04-13T08:17:12Z</time>
      </trkpt>
      <trkpt lat="48.742609033361077" lon="9.08156200312078">
        <ele>466.38</ele>
        <time>2014-04-13T08:17:39Z</time>
      </trkpt>
      <trkpt lat="48.742671981453896" lon="9.081410961225629">
        <ele>463.97000000000003</ele>
        <time>2014-04-13T08:17:43Z</time>
      </trkpt>
      <trkpt lat="48.742953026667237" lon="9.080732027068734">
        <ele>455.80000000000001</ele>
        <time>2014-04-13T08:18:26Z</time>
      </trkpt>
      <trkpt lat="48.743162993341684" lon="9.079956030473113">
        <ele>453.39999999999998</ele>
        <time>2014-04-13T08:19:20Z</time>
      </trkpt>
      <trkpt lat="48.743185959756374" lon="9.079737011343241">
        <ele>449.55000000000001</ele>
        <time>2014-04-13T08:19:31Z</time>
      </trkpt>
      <trkpt lat="48.743376983329654" lon="9.079097975045443">
        <ele>443.31</ele>
        <time>2014-04-13T08:20:13Z</time>
      </trkpt>
      <trkpt lat="48.743416965007782" lon="9.078417029231787">
        <ele>437.54000000000002</ele>
        <time>2014-04-13T08:21:00Z</time>
      </trkpt>
      <trkpt lat="48.74341101385653" lon="9.078380987048149">
        <ele>439.45999999999998</ele>
        <time>2014-04-13T08:21:03Z</time>
      </trkpt>
      <trkpt lat="48.743344964459538" lon="9.07814503647387">
        <ele>438.01999999999998</ele>
        <time>2014-04-13T08:21:20Z</time>
      </trkpt>
      <trkpt lat="48.743187971413136" lon="9.077739017084241">
        <ele>440.89999999999998</ele>
        <time>2014-04-13T08:21:46Z</time>
      </trkpt>
      <trkpt lat="48.742452962324023" lon="9.077026974409819">
        <ele>444.26999999999998</ele>
        <time>2014-04-13T08:23:09Z</time>
      </trkpt>
      <trkpt lat="48.742260010913014" lon="9.076850032433868">
        <ele>443.79000000000002</ele>
        <time>2014-04-13T08:23:27Z</time>
      </trkpt>
      <trkpt lat="48.742263028398156" lon="9.076524982228875">
        <ele>440.42000000000002</ele>
        <time>2014-04-13T08:23:37Z</time>
      </trkpt>
      <trkpt lat="48.742334023118019" lon="9.07625500112772">
        <ele>443.79000000000002</ele>
        <time>2014-04-13T08:23:47Z</time>
      </trkpt>
      <trkpt lat="48.742427984252572" lon="9.075951995328069">
        <ele>440.42000000000002</ele>
        <time>2014-04-13T08:24:30Z</time>
      </trkpt>
      <trkpt lat="48.742618001997471" lon="9.075763989239931">
        <ele>444.26999999999998</ele>
        <time>2014-04-13T08:28:09Z</time>
      </trkpt>
      <trkpt lat="48.743287967517972" lon="9.075215980410576">
        <ele>444.75</ele>
        <time>2014-04-13T08:29:21Z</time>
      </trkpt>
      <trkpt lat="48.743328033015132" lon="9.075226960703731">
        <ele>441.38</ele>
        <time>2014-04-13T08:29:24Z</time>
      </trkpt>
      <trkpt lat="48.743342030793428" lon="9.075234001502395">
        <ele>446.19</ele>
        <time>2014-04-13T08:29:25Z</time>
      </trkpt>
      <trkpt lat="48.743375977501273" lon="9.075255962088704">
        <ele>444.75</ele>
        <time>2014-04-13T08:29:28Z</time>
      </trkpt>
      <trkpt lat="48.743938989937305" lon="9.076054003089666">
        <ele>444.26999999999998</ele>
        <time>2014-04-13T08:31:06Z</time>
      </trkpt>
      <trkpt lat="48.745003994554281" lon="9.076918009668589">
        <ele>446.19</ele>
        <time>2014-04-13T08:33:13Z</time>
      </trkpt>
      <trkpt lat="48.745693992823362" lon="9.077775981277227">
        <ele>446.19</ele>
        <time>2014-04-13T08:34:19Z</time>
      </trkpt>
      <trkpt lat="48.746275026351213" lon="9.078799998387694">
        <ele>448.58999999999997</ele>
        <time>2014-04-13T08:35:41Z</time>
      </trkpt>
      <trkpt lat="48.746533021330833" lon="9.079043995589018">
        <ele>449.55000000000001</ele>
        <time>2014-04-13T08:36:11Z</time>
      </trkpt>
      <trkpt lat="48.74654701910913" lon="9.079056987538934">
        <ele>446.19</ele>
        <time>2014-04-13T08:36:13Z</time>
      </trkpt>
      <trkpt lat="48.74661298468709" lon="9.07907098531723">
        <ele>451.48000000000002</ele>
        <time>2014-04-13T08:36:22Z</time>
      </trkpt>
      <trkpt lat="48.747402979061007" lon="9.079788979142904">
        <ele>443.31</ele>
        <time>2014-04-13T08:37:51Z</time>
      </trkpt>
      <trkpt lat="48.747399039566517" lon="9.082838986068964">
        <ele>441.86000000000001</ele>
        <time>2014-04-13T08:41:46Z</time>
      </trkpt>
      <trkpt lat="48.747446984052658" lon="9.084116974845529">
        <ele>436.57999999999998</ele>
        <time>2014-04-13T08:43:19Z</time>
      </trkpt>
      <trkpt lat="48.74712604098022" lon="9.084578985348344">
        <ele>437.54000000000002</ele>
        <time>2014-04-13T08:48:38Z</time>
      </trkpt>
      <trkpt lat="48.746911967173219" lon="9.084679987281561">
        <ele>436.10000000000002</ele>
        <time>2014-04-13T08:51:13Z</time>
      </trkpt>
      <trkpt lat="48.746942980214953" lon="9.085418013855815">
        <ele>434.17000000000002</ele>
        <time>2014-04-13T08:52:05Z</time>
      </trkpt>
      <trkpt lat="48.747031996026635" lon="9.08652501180768">
        <ele>433.69</ele>
        <time>2014-04-13T08:53:10Z</time>
      </trkpt>
      <trkpt lat="48.74723601154983" lon="9.089233037084341">
        <ele>426</ele>
        <time>2014-04-13T08:55:46Z</time>
      </trkpt>
      <trkpt lat="48.747199969366193" lon="9.089371003210545">
        <ele>422.63999999999999</ele>
        <time>2014-04-13T08:55:54Z</time>
      </trkpt>
      <trkpt lat="48.747198041528463" lon="9.089390030130744">
        <ele>426</ele>
        <time>2014-04-13T08:55:55Z</time>
      </trkpt>
      <trkpt lat="48.747068038210273" lon="9.0897480212152">
        <ele>422.16000000000003</ele>
        <time>2014-04-13T08:56:19Z</time>
      </trkpt>
      <trkpt lat="48.747048005461693" lon="9.090065024793148">
        <ele>428.88999999999999</ele>
        <time>2014-04-13T08:56:39Z</time>
      </trkpt>
      <trkpt lat="48.747059991583228" lon="9.090164015069604">
        <ele>428.88999999999999</ele>
        <time>2014-04-13T08:56:46Z</time>
      </trkpt>
      <trkpt lat="48.74708304181695" lon="9.090323019772768">
        <ele>430.32999999999998</ele>
        <time>2014-04-13T08:56:57Z</time>
      </trkpt>
      <trkpt lat="48.747112965211272" lon="9.090789975598455">
        <ele>431.29000000000002</ele>
        <time>2014-04-13T08:57:28Z</time>
      </trkpt>
      <trkpt lat="48.747022021561861" lon="9.091364974156022">
        <ele>429.85000000000002</ele>
        <time>2014-04-13T08:58:41Z</time>
      </trkpt>
      <trkpt lat="48.74725797213614" lon="9.091497994959354">
        <ele>433.69</ele>
        <time>2014-04-13T09:00:38Z</time>
      </trkpt>
      <trkpt lat="48.747428962960839" lon="9.091643001884222">
        <ele>438.5</ele>
        <time>2014-04-13T09:01:01Z</time>
      </trkpt>
      <trkpt lat="48.747434997931123" lon="9.091643001884222">
        <ele>432.25</ele>
        <time>2014-04-13T09:01:02Z</time>
      </trkpt>
      <trkpt lat="48.747440027073026" lon="9.0916389785707">
        <ele>438.01999999999998</ele>
        <time>2014-04-13T09:01:04Z</time>
      </trkpt>
      <trkpt lat="48.747442960739136" lon="9.091631015762687">
        <ele>432.73000000000002</ele>
        <time>2014-04-13T09:01:05Z</time>
      </trkpt>
      <trkpt lat="48.747457964345813" lon="9.091583993285894">
        <ele>430.81</ele>
        <time>2014-04-13T09:01:11Z</time>
      </trkpt>
      <trkpt lat="48.747571958228946" lon="9.091430017724633">
        <ele>434.17000000000002</ele>
        <time>2014-04-13T09:01:26Z</time>
      </trkpt>
      <trkpt lat="48.748016031458974" lon="9.091042019426823">
        <ele>433.20999999999998</ele>
        <time>2014-04-13T09:02:17Z</time>
      </trkpt>
      <trkpt lat="48.749955017119646" lon="9.090268034487963">
        <ele>433.69</ele>
        <time>2014-04-13T09:05:15Z</time>
      </trkpt>
      <trkpt lat="48.750483999028802" lon="9.090744964778423">
        <ele>435.61000000000001</ele>
        <time>2014-04-13T09:06:04Z</time>
      </trkpt>
      <trkpt lat="48.752636974677444" lon="9.090989967808127">
        <ele>433.69</ele>
        <time>2014-04-13T09:09:50Z</time>
      </trkpt>
      <trkpt lat="48.752685002982616" lon="9.091135980561376">
        <ele>433.20999999999998</ele>
        <time>2014-04-13T09:11:09Z</time>
      </trkpt>
      <trkpt lat="48.752725990489125" lon="9.090811014175415">
        <ele>435.61000000000001</ele>
        <time>2014-04-13T09:11:56Z</time>
      </trkpt>
      <trkpt lat="48.752903016284108" lon="9.090454028919339">
        <ele>435.61000000000001</ele>
        <time>2014-04-13T09:12:31Z</time>
      </trkpt>
      <trkpt lat="48.752916008234024" lon="9.090425027534366">
        <ele>432.73000000000002</ele>
        <time>2014-04-13T09:12:34Z</time>
      </trkpt>
      <trkpt lat="48.753419006243348" lon="9.090653015300632">
        <ele>432.25</ele>
        <time>2014-04-13T09:13:26Z</time>
      </trkpt>
      <trkpt lat="48.753720000386238" lon="9.091298002749682">
        <ele>434.64999999999998</ele>
        <time>2014-04-13T09:14:10Z</time>
      </trkpt>
      <trkpt lat="48.753726035356522" lon="9.091354999691248">
        <ele>430.32999999999998</ele>
        <time>2014-04-13T09:14:14Z</time>
      </trkpt>
      <trkpt lat="48.753727041184902" lon="9.091367991641164">
        <ele>433.69</ele>
        <time>2014-04-13T09:14:15Z</time>
      </trkpt>
      <trkpt lat="48.753744978457689" lon="9.091468993574381">
        <ele>430.32999999999998</ele>
        <time>2014-04-13T09:14:22Z</time>
      </trkpt>
      <trkpt lat="48.753858972340822" lon="9.091771999374032">
        <ele>434.64999999999998</ele>
        <time>2014-04-13T09:14:44Z</time>
      </trkpt>
      <trkpt lat="48.754101963713765" lon="9.09202303737402">
        <ele>431.29000000000002</ele>
        <time>2014-04-13T09:15:21Z</time>
      </trkpt>
      <trkpt lat="48.754054019227624" lon="9.091848023235798">
        <ele>431.29000000000002</ele>
        <time>2014-04-13T09:15:35Z</time>
      </trkpt>
      <trkpt lat="48.754444029182196" lon="9.091526996344328">
        <ele>432.25</ele>
        <time>2014-04-13T09:16:34Z</time>
      </trkpt>
      <trkpt lat="48.754892041906714" lon="9.091708967462182">
        <ele>432.25</ele>
        <time>2014-04-13T09:17:17Z</time>
      </trkpt>
      <trkpt lat="48.755253972485662" lon="9.092556964606047">
        <ele>428.39999999999998</ele>
        <time>2014-04-13T09:18:14Z</time>
      </trkpt>
      <trkpt lat="48.755261013284326" lon="9.093087036162615">
        <ele>433.20999999999998</ele>
        <time>2014-04-13T09:18:46Z</time>
      </trkpt>
      <trkpt lat="48.755496041849256" lon="9.094544984400272">
        <ele>431.29000000000002</ele>
        <time>2014-04-13T09:20:25Z</time>
      </trkpt>
      <trkpt lat="48.755623027682304" lon="9.094943040981889">
        <ele>428.39999999999998</ele>
        <time>2014-04-13T09:21:37Z</time>
      </trkpt>
      <trkpt lat="48.755302000790834" lon="9.093983983621001">
        <ele>431.76999999999998</ele>
        <time>2014-04-13T09:26:04Z</time>
      </trkpt>
      <trkpt lat="48.755234023556113" lon="9.093706961721182">
        <ele>426.95999999999998</ele>
        <time>2014-04-13T09:26:23Z</time>
      </trkpt>
      <trkpt lat="48.755223965272307" lon="9.093692963942885">
        <ele>430.81</ele>
        <time>2014-04-13T09:26:24Z</time>
      </trkpt>
      <trkpt lat="48.755179038271308" lon="9.093617023900151">
        <ele>427.44</ele>
        <time>2014-04-13T09:26:30Z</time>
      </trkpt>
      <trkpt lat="48.755125980824232" lon="9.093490960076451">
        <ele>430.81</ele>
        <time>2014-04-13T09:26:42Z</time>
      </trkpt>
      <trkpt lat="48.755117012187839" lon="9.093459025025368">
        <ele>427.44</ele>
        <time>2014-04-13T09:26:44Z</time>
      </trkpt>
      <trkpt lat="48.755115000531077" lon="9.09344301559031">
        <ele>432.25</ele>
        <time>2014-04-13T09:26:45Z</time>
      </trkpt>
      <trkpt lat="48.755115000531077" lon="9.093426000326872">
        <ele>430.32999999999998</ele>
        <time>2014-04-13T09:26:46Z</time>
      </trkpt>
      <trkpt lat="48.755181971937418" lon="9.092664001509547">
        <ele>430.81</ele>
        <time>2014-04-13T09:27:34Z</time>
      </trkpt>
      <trkpt lat="48.755090022459626" lon="9.092449005693197">
        <ele>431.76999999999998</ele>
        <time>2014-04-13T09:27:52Z</time>
      </trkpt>
      <trkpt lat="48.755272999405861" lon="9.092236021533608">
        <ele>427.92000000000002</ele>
        <time>2014-04-13T09:28:08Z</time>
      </trkpt>
      <trkpt lat="48.755310969427228" lon="9.092192016541958">
        <ele>421.68000000000001</ele>
        <time>2014-04-13T09:28:50Z</time>
      </trkpt>
      <trkpt lat="48.755251038819551" lon="9.09140202216804">
        <ele>417.35000000000002</ele>
        <time>2014-04-13T09:29:48Z</time>
      </trkpt>
      <trkpt lat="48.755508027970791" lon="9.091465976089239">
        <ele>413.98000000000002</ele>
        <time>2014-04-13T09:30:05Z</time>
      </trkpt>
      <trkpt lat="48.755684969946742" lon="9.091885993257165">
        <ele>417.35000000000002</ele>
        <time>2014-04-13T09:30:37Z</time>
      </trkpt>
      <trkpt lat="48.756061987951398" lon="9.091885993257165">
        <ele>420.23000000000002</ele>
        <time>2014-04-13T09:31:43Z</time>
      </trkpt>
      <trkpt lat="48.756098030135036" lon="9.092008033767343">
        <ele>420.70999999999998</ele>
        <time>2014-04-13T09:31:52Z</time>
      </trkpt>
      <trkpt lat="48.756270026788116" lon="9.093140009790659">
        <ele>423.60000000000002</ele>
        <time>2014-04-13T09:33:11Z</time>
      </trkpt>
      <trkpt lat="48.756473958492279" lon="9.093477968126535">
        <ele>421.19</ele>
        <time>2014-04-13T09:34:05Z</time>
      </trkpt>
      <trkpt lat="48.756487034261227" lon="9.093478973954916">
        <ele>427.92000000000002</ele>
        <time>2014-04-13T09:34:06Z</time>
      </trkpt>
      <trkpt lat="48.756533972918987" lon="9.0934850089252">
        <ele>421.68000000000001</ele>
        <time>2014-04-13T09:34:13Z</time>
      </trkpt>
      <trkpt lat="48.756535984575748" lon="9.093487020581961">
        <ele>426.48000000000002</ele>
        <time>2014-04-13T09:34:14Z</time>
      </trkpt>
      <trkpt lat="48.756595999002457" lon="9.093516021966934">
        <ele>430.81</ele>
        <time>2014-04-13T09:34:26Z</time>
      </trkpt>
      <trkpt lat="48.756605973467231" lon="9.093519961461425">
        <ele>425.51999999999998</ele>
        <time>2014-04-13T09:34:27Z</time>
      </trkpt>
      <trkpt lat="48.75666699372232" lon="9.093511998653412">
        <ele>429.37</ele>
        <time>2014-04-13T09:34:31Z</time>
      </trkpt>
      <trkpt lat="48.75668996013701" lon="9.093509986996651">
        <ele>426</ele>
        <time>2014-04-13T09:34:33Z</time>
      </trkpt>
      <trkpt lat="48.756761960685253" lon="9.09357100725174">
        <ele>430.81</ele>
        <time>2014-04-13T09:34:44Z</time>
      </trkpt>
      <trkpt lat="48.756767995655537" lon="9.093575030565262">
        <ele>427.44</ele>
        <time>2014-04-13T09:34:45Z</time>
      </trkpt>
      <trkpt lat="48.75688299536705" lon="9.093522978946567">
        <ele>430.81</ele>
        <time>2014-04-13T09:35:34Z</time>
      </trkpt>
      <trkpt lat="48.75688299536705" lon="9.093385012820363">
        <ele>433.69</ele>
        <time>2014-04-13T09:36:01Z</time>
      </trkpt>
      <trkpt lat="48.756782999262214" lon="9.093331033363938">
        <ele>434.17000000000002</ele>
        <time>2014-04-13T09:36:12Z</time>
      </trkpt>
      <trkpt lat="48.756656013429165" lon="9.093111008405685">
        <ele>434.17000000000002</ele>
        <time>2014-04-13T09:36:32Z</time>
      </trkpt>
      <trkpt lat="48.756638998165727" lon="9.093026015907526">
        <ele>429.85000000000002</ele>
        <time>2014-04-13T09:36:38Z</time>
      </trkpt>
      <trkpt lat="48.756640003994107" lon="9.09301201812923">
        <ele>434.64999999999998</ele>
        <time>2014-04-13T09:36:39Z</time>
      </trkpt>
      <trkpt lat="48.756642015650868" lon="9.092963989824057">
        <ele>429.85000000000002</ele>
        <time>2014-04-13T09:36:42Z</time>
      </trkpt>
      <trkpt lat="48.756641009822488" lon="9.092946974560618">
        <ele>435.61000000000001</ele>
        <time>2014-04-13T09:36:43Z</time>
      </trkpt>
      <trkpt lat="48.756641009822488" lon="9.092934988439083">
        <ele>432.73000000000002</ele>
        <time>2014-04-13T09:36:44Z</time>
      </trkpt>
      <trkpt lat="48.75668803229928" lon="9.092741031199694">
        <ele>437.06</ele>
        <time>2014-04-13T09:36:56Z</time>
      </trkpt>
      <trkpt lat="48.756743017584085" lon="9.092425033450127">
        <ele>437.06</ele>
        <time>2014-04-13T09:37:18Z</time>
      </trkpt>
      <trkpt lat="48.756909985095263" lon="9.091938966885209">
        <ele>432.73000000000002</ele>
        <time>2014-04-13T09:37:46Z</time>
      </trkpt>
      <trkpt lat="48.756932029500604" lon="9.091920023784041">
        <ele>438.5</ele>
        <time>2014-04-13T09:37:47Z</time>
      </trkpt>
      <trkpt lat="48.7569460272789" lon="9.091910971328616">
        <ele>434.17000000000002</ele>
        <time>2014-04-13T09:37:48Z</time>
      </trkpt>
      <trkpt lat="48.756954995915294" lon="9.092051032930613">
        <ele>436.57999999999998</ele>
        <time>2014-04-13T09:42:06Z</time>
      </trkpt>
      <trkpt lat="48.757020961493254" lon="9.091701004654169">
        <ele>441.38</ele>
        <time>2014-04-13T09:42:50Z</time>
      </trkpt>
      <trkpt lat="48.757403008639812" lon="9.090406000614166">
        <ele>441.86000000000001</ele>
        <time>2014-04-13T09:44:31Z</time>
      </trkpt>
      <trkpt lat="48.758735982701182" lon="9.0905009675771">
        <ele>432.73000000000002</ele>
        <time>2014-04-13T09:46:47Z</time>
      </trkpt>
      <trkpt lat="48.759231017902493" lon="9.090334000065923">
        <ele>431.76999999999998</ele>
        <time>2014-04-13T09:47:34Z</time>
      </trkpt>
      <trkpt lat="48.759510973468423" lon="9.090811014175415">
        <ele>435.61000000000001</ele>
        <time>2014-04-13T09:48:08Z</time>
      </trkpt>
      <trkpt lat="48.759964015334845" lon="9.091218039393425">
        <ele>444.75</ele>
        <time>2014-04-13T09:49:10Z</time>
      </trkpt>
      <trkpt lat="48.760264003649354" lon="9.091253997758031">
        <ele>447.63</ele>
        <time>2014-04-13T09:49:51Z</time>
      </trkpt>
      <trkpt lat="48.760442035272717" lon="9.09127201884985">
        <ele>446.67000000000002</ele>
        <time>2014-04-13T09:50:17Z</time>
      </trkpt>
      <trkpt lat="48.760530967265368" lon="9.091235976666212">
        <ele>442.81999999999999</ele>
        <time>2014-04-13T09:50:28Z</time>
      </trkpt>
      <trkpt lat="48.760548988357186" lon="9.09123295918107">
        <ele>447.63</ele>
        <time>2014-04-13T09:50:29Z</time>
      </trkpt>
      <trkpt lat="48.760631969198585" lon="9.09123295918107">
        <ele>450.51999999999998</ele>
        <time>2014-04-13T09:50:34Z</time>
      </trkpt>
      <trkpt lat="48.76068402081728" lon="9.091235976666212">
        <ele>449.06999999999999</ele>
        <time>2014-04-13T09:50:38Z</time>
      </trkpt>
      <trkpt lat="48.760702041909099" lon="9.091259026899934">
        <ele>450.51999999999998</ele>
        <time>2014-04-13T09:50:41Z</time>
      </trkpt>
      <trkpt lat="48.760702041909099" lon="9.091263972222805">
        <ele>446.67000000000002</ele>
        <time>2014-04-13T09:50:42Z</time>
      </trkpt>
      <trkpt lat="48.760787034407258" lon="9.091289034113288">
        <ele>448.11000000000001</ele>
        <time>2014-04-13T09:52:09Z</time>
      </trkpt>
      <trkpt lat="48.76072701998055" lon="9.090977981686592">
        <ele>447.63</ele>
        <time>2014-04-13T09:54:44Z</time>
      </trkpt>
      <trkpt lat="48.760658036917448" lon="9.091072026640177">
        <ele>446.19</ele>
        <time>2014-04-13T09:58:20Z</time>
      </trkpt>
      <trkpt lat="48.760821986943483" lon="9.091031961143017">
        <ele>463.00999999999999</ele>
        <time>2014-04-13T09:58:47Z</time>
      </trkpt>
      <trkpt lat="48.761507039889693" lon="9.09114696085453">
        <ele>446.19</ele>
        <time>2014-04-13T09:59:33Z</time>
      </trkpt>
      <trkpt lat="48.760779993608594" lon="9.090948980301619">
        <ele>449.55000000000001</ele>
        <time>2014-04-13T10:05:26Z</time>
      </trkpt>
      <trkpt lat="48.760897004976869" lon="9.091068003326654">
        <ele>448.58999999999997</ele>
        <time>2014-04-13T10:09:33Z</time>
      </trkpt>
      <trkpt lat="48.760989960283041" lon="9.091129023581743">
        <ele>449.06999999999999</ele>
        <time>2014-04-13T10:10:15Z</time>
      </trkpt>
      <trkpt lat="48.760995995253325" lon="9.091118965297937">
        <ele>444.26999999999998</ele>
        <time>2014-04-13T10:10:17Z</time>
      </trkpt>
      <trkpt lat="48.760849982500076" lon="9.091205969452858">
        <ele>447.14999999999998</ele>
        <time>2014-04-13T10:10:39Z</time>
      </trkpt>
      <trkpt lat="48.760563991963863" lon="9.091303031891584">
        <ele>444.75</ele>
        <time>2014-04-13T10:11:33Z</time>
      </trkpt>
      <trkpt lat="48.760557034984231" lon="9.091098010540009">
        <ele>443.79000000000002</ele>
        <time>2014-04-13T10:13:13Z</time>
      </trkpt>
      <trkpt lat="48.760665999725461" lon="9.091091975569725">
        <ele>444.75</ele>
        <time>2014-04-13T10:13:53Z</time>
      </trkpt>
      <trkpt lat="48.760691983625293" lon="9.091059034690261">
        <ele>447.14999999999998</ele>
        <time>2014-04-13T10:17:17Z</time>
      </trkpt>
      <trkpt lat="48.760701036080718" lon="9.091049982234836">
        <ele>443.79000000000002</ele>
        <time>2014-04-13T10:17:18Z</time>
      </trkpt>
      <trkpt lat="48.761949017643929" lon="9.091188032180071">
        <ele>445.23000000000002</ele>
        <time>2014-04-13T10:19:52Z</time>
      </trkpt>
      <trkpt lat="48.762111961841583" lon="9.091223990544677">
        <ele>440.42000000000002</ele>
        <time>2014-04-13T10:20:32Z</time>
      </trkpt>
      <trkpt lat="48.76160996966064" lon="9.090675981715322">
        <ele>432.73000000000002</ele>
        <time>2014-04-13T10:22:24Z</time>
      </trkpt>
      <trkpt lat="48.761553978547454" lon="9.09045897424221">
        <ele>430.32999999999998</ele>
        <time>2014-04-13T10:22:40Z</time>
      </trkpt>
      <trkpt lat="48.76173896715045" lon="9.088965989649296">
        <ele>433.69</ele>
        <time>2014-04-13T10:23:47Z</time>
      </trkpt>
      <trkpt lat="48.761769980192184" lon="9.088753005489707">
        <ele>432.25</ele>
        <time>2014-04-13T10:23:58Z</time>
      </trkpt>
      <trkpt lat="48.762807995080948" lon="9.087206963449717">
        <ele>428.39999999999998</ele>
        <time>2014-04-13T10:26:11Z</time>
      </trkpt>
      <trkpt lat="48.762843031436205" lon="9.087171005085111">
        <ele>430.81</ele>
        <time>2014-04-13T10:26:15Z</time>
      </trkpt>
      <trkpt lat="48.763214014470577" lon="9.086821982637048">
        <ele>432.25</ele>
        <time>2014-04-13T10:26:57Z</time>
      </trkpt>
      <trkpt lat="48.763282997533679" lon="9.086818965151906">
        <ele>435.61000000000001</ele>
        <time>2014-04-13T10:27:02Z</time>
      </trkpt>
      <trkpt lat="48.763325996696949" lon="9.08682500012219">
        <ele>435.13</ele>
        <time>2014-04-13T10:27:06Z</time>
      </trkpt>
      <trkpt lat="48.763553984463215" lon="9.08676297403872">
        <ele>439.94</ele>
        <time>2014-04-13T10:27:29Z</time>
      </trkpt>
      <trkpt lat="48.763567982241511" lon="9.086758028715849">
        <ele>436.10000000000002</ele>
        <time>2014-04-13T10:27:30Z</time>
      </trkpt>
      <trkpt lat="48.763835029676557" lon="9.086573040112853">
        <ele>439.45999999999998</ele>
        <time>2014-04-13T10:27:57Z</time>
      </trkpt>
      <trkpt lat="48.76463801600039" lon="9.086631964892149">
        <ele>438.01999999999998</ele>
        <time>2014-04-13T10:29:00Z</time>
      </trkpt>
      <trkpt lat="48.76483297906816" lon="9.086388973519206">
        <ele>434.64999999999998</ele>
        <time>2014-04-13T10:29:24Z</time>
      </trkpt>
      <trkpt lat="48.764699958264828" lon="9.085808023810387">
        <ele>440.42000000000002</ele>
        <time>2014-04-13T10:35:32Z</time>
      </trkpt>
      <trkpt lat="48.764717979356647" lon="9.085993012413383">
        <ele>438.01999999999998</ele>
        <time>2014-04-13T10:37:47Z</time>
      </trkpt>
      <trkpt lat="48.765180995687842" lon="9.085353976115584">
        <ele>442.33999999999997</ele>
        <time>2014-04-13T10:39:37Z</time>
      </trkpt>
      <trkpt lat="48.765321979299188" lon="9.08504200167954">
        <ele>439.94</ele>
        <time>2014-04-13T10:40:09Z</time>
      </trkpt>
      <trkpt lat="48.76674497500062" lon="9.084887020289898">
        <ele>443.31</ele>
        <time>2014-04-13T10:42:29Z</time>
      </trkpt>
      <trkpt lat="48.766779005527496" lon="9.084858018904924">
        <ele>439.45999999999998</ele>
        <time>2014-04-13T10:42:32Z</time>
      </trkpt>
      <trkpt lat="48.76678797416389" lon="9.084845026955009">
        <ele>443.31</ele>
        <time>2014-04-13T10:42:33Z</time>
      </trkpt>
      <trkpt lat="48.76695997081697" lon="9.084389973431826">
        <ele>445.70999999999998</ele>
        <time>2014-04-13T10:43:08Z</time>
      </trkpt>
      <trkpt lat="48.766985032707453" lon="9.084375975653529">
        <ele>445.70999999999998</ele>
        <time>2014-04-13T10:43:12Z</time>
      </trkpt>
      <trkpt lat="48.766912026330829" lon="9.083907008171082">
        <ele>446.19</ele>
        <time>2014-04-13T10:43:49Z</time>
      </trkpt>
      <trkpt lat="48.76691797748208" lon="9.083870965987444">
        <ele>444.26999999999998</ele>
        <time>2014-04-13T10:43:52Z</time>
      </trkpt>
      <trkpt lat="48.766906997188926" lon="9.0832360368222">
        <ele>454.83999999999997</ele>
        <time>2014-04-13T10:44:45Z</time>
      </trkpt>
      <trkpt lat="48.766905991360545" lon="9.083226984366775">
        <ele>447.14999999999998</ele>
        <time>2014-04-13T10:44:46Z</time>
      </trkpt>
      <trkpt lat="48.766911020502448" lon="9.083201000466943">
        <ele>452.92000000000002</ele>
        <time>2014-04-13T10:44:49Z</time>
      </trkpt>
      <trkpt lat="48.766952008008957" lon="9.083021963015199">
        <ele>457.24000000000001</ele>
        <time>2014-04-13T10:45:06Z</time>
      </trkpt>
      <trkpt lat="48.766951002180576" lon="9.083017017692328">
        <ele>451.48000000000002</ele>
        <time>2014-04-13T10:45:07Z</time>
      </trkpt>
      <trkpt lat="48.766949996352196" lon="9.083010982722044">
        <ele>454.36000000000001</ele>
        <time>2014-04-13T10:45:09Z</time>
      </trkpt>
      <trkpt lat="48.766953013837337" lon="9.082509996369481">
        <ele>458.20999999999998</ele>
        <time>2014-04-13T10:45:57Z</time>
      </trkpt>
      <trkpt lat="48.766962988302112" lon="9.082448976114392">
        <ele>453.39999999999998</ele>
        <time>2014-04-13T10:46:01Z</time>
      </trkpt>
      <trkpt lat="48.766971034929156" lon="9.082412011921406">
        <ele>457.24000000000001</ele>
        <time>2014-04-13T10:46:02Z</time>
      </trkpt>
      <trkpt lat="48.766991989687085" lon="9.082157034426928">
        <ele>453.39999999999998</ele>
        <time>2014-04-13T10:46:16Z</time>
      </trkpt>
      <trkpt lat="48.766985032707453" lon="9.082129038870335">
        <ele>458.69</ele>
        <time>2014-04-13T10:46:17Z</time>
      </trkpt>
      <trkpt lat="48.766967011615634" lon="9.081967016682029">
        <ele>453.39999999999998</ele>
        <time>2014-04-13T10:46:25Z</time>
      </trkpt>
      <trkpt lat="48.766968017444015" lon="9.081951007246971">
        <ele>457.72000000000003</ele>
        <time>2014-04-13T10:46:26Z</time>
      </trkpt>
      <trkpt lat="48.76698000356555" lon="9.081453960388899">
        <ele>459.17000000000002</ele>
        <time>2014-04-13T10:47:04Z</time>
      </trkpt>
      <trkpt lat="48.767031971365213" lon="9.081243993714452">
        <ele>463.97000000000003</ele>
        <time>2014-04-13T10:47:17Z</time>
      </trkpt>
      <trkpt lat="48.767113024368882" lon="9.079741034656763">
        <ele>465.42000000000002</ele>
        <time>2014-04-13T10:48:59Z</time>
      </trkpt>
      <trkpt lat="48.767020991072059" lon="9.079481028020382">
        <ele>465.42000000000002</ele>
        <time>2014-04-13T10:50:59Z</time>
      </trkpt>
      <trkpt lat="48.767154011875391" lon="9.078995967283845">
        <ele>469.25999999999999</ele>
        <time>2014-04-13T10:52:57Z</time>
      </trkpt>
      <trkpt lat="48.767202962189913" lon="9.077356969937682">
        <ele>476.47000000000003</ele>
        <time>2014-04-13T10:54:52Z</time>
      </trkpt>
      <trkpt lat="48.76726197078824" lon="9.076760010793805">
        <ele>478.87</ele>
        <time>2014-04-13T10:55:40Z</time>
      </trkpt>
      <trkpt lat="48.767479984089732" lon="9.072353979572654">
        <ele>485.60000000000002</ele>
        <time>2014-04-13T10:59:45Z</time>
      </trkpt>
      <trkpt lat="48.767446037381887" lon="9.07234501093626">
        <ele>475.02999999999997</ele>
        <time>2014-04-13T10:59:51Z</time>
      </trkpt>
      <trkpt lat="48.767442014068365" lon="9.072341993451119">
        <ele>484.63999999999999</ele>
        <time>2014-04-13T10:59:52Z</time>
      </trkpt>
      <trkpt lat="48.767438996583223" lon="9.072333024814725">
        <ele>480.31999999999999</ele>
        <time>2014-04-13T10:59:53Z</time>
      </trkpt>
      <trkpt lat="48.767471015453339" lon="9.072142001241446">
        <ele>483.68000000000001</ele>
        <time>2014-04-13T11:00:07Z</time>
      </trkpt>
      <trkpt lat="48.767485013231635" lon="9.072070000693202">
        <ele>483.19999999999999</ele>
        <time>2014-04-13T11:00:13Z</time>
      </trkpt>
      <trkpt lat="48.767487024888396" lon="9.072056002914906">
        <ele>479.35000000000002</ele>
        <time>2014-04-13T11:00:14Z</time>
      </trkpt>
      <trkpt lat="48.767498005181551" lon="9.071888029575348">
        <ele>482.72000000000003</ele>
        <time>2014-04-13T11:00:26Z</time>
      </trkpt>
      <trkpt lat="48.767500016838312" lon="9.07185198739171">
        <ele>475.99000000000001</ele>
        <time>2014-04-13T11:00:28Z</time>
      </trkpt>
      <trkpt lat="48.767500016838312" lon="9.071834972128272">
        <ele>481.27999999999997</ele>
        <time>2014-04-13T11:00:29Z</time>
      </trkpt>
      <trkpt lat="48.767527006566525" lon="9.07135603018105">
        <ele>476.47000000000003</ele>
        <time>2014-04-13T11:01:01Z</time>
      </trkpt>
      <trkpt lat="48.767530024051666" lon="9.071338009089232">
        <ele>483.68000000000001</ele>
        <time>2014-04-13T11:01:02Z</time>
      </trkpt>
      <trkpt lat="48.76756296493113" lon="9.070688998326659">
        <ele>478.87</ele>
        <time>2014-04-13T11:01:42Z</time>
      </trkpt>
      <trkpt lat="48.76755902543664" lon="9.070621021091938">
        <ele>483.19999999999999</ele>
        <time>2014-04-13T11:02:01Z</time>
      </trkpt>
      <trkpt lat="48.767591966316104" lon="9.070490011945367">
        <ele>476.94999999999999</ele>
        <time>2014-04-13T11:02:10Z</time>
      </trkpt>
      <trkpt lat="48.767608981579542" lon="9.070160016417503">
        <ele>480.80000000000001</ele>
        <time>2014-04-13T11:02:28Z</time>
      </trkpt>
      <trkpt lat="48.767621973529458" lon="9.069124013185501">
        <ele>477.91000000000003</ele>
        <time>2014-04-13T11:03:39Z</time>
      </trkpt>
      <trkpt lat="48.767622979357839" lon="9.069124013185501">
        <ele>485.12</ele>
        <time>2014-04-13T11:03:40Z</time>
      </trkpt>
      <trkpt lat="48.767627002671361" lon="9.069116972386837">
        <ele>481.75999999999999</ele>
        <time>2014-04-13T11:03:42Z</time>
      </trkpt>
      <trkpt lat="48.7679030187428" lon="9.068329995498061">
        <ele>483.19999999999999</ele>
        <time>2014-04-13T11:04:55Z</time>
      </trkpt>
      <trkpt lat="48.767919028177857" lon="9.068280039355159">
        <ele>479.83999999999997</ele>
        <time>2014-04-13T11:04:58Z</time>
      </trkpt>
      <trkpt lat="48.77026897855103" lon="9.064077017828822">
        <ele>486.07999999999998</ele>
        <time>2014-04-13T11:10:12Z</time>
      </trkpt>
      <trkpt lat="48.770368974655867" lon="9.063884988427162">
        <ele>485.60000000000002</ele>
        <time>2014-04-13T11:10:27Z</time>
      </trkpt>
      <trkpt lat="48.770371992141008" lon="9.063870990648866">
        <ele>481.75999999999999</ele>
        <time>2014-04-13T11:10:29Z</time>
      </trkpt>
      <trkpt lat="48.770381966605783" lon="9.063839977607131">
        <ele>486.56</ele>
        <time>2014-04-13T11:10:30Z</time>
      </trkpt>
      <trkpt lat="48.770386995747685" lon="9.063822040334344">
        <ele>483.19999999999999</ele>
        <time>2014-04-13T11:10:31Z</time>
      </trkpt>
      <trkpt lat="48.770454972982407" lon="9.063669992610812">
        <ele>486.56</ele>
        <time>2014-04-13T11:10:42Z</time>
      </trkpt>
      <trkpt lat="48.77048003487289" lon="9.063627999275923">
        <ele>482.24000000000001</ele>
        <time>2014-04-13T11:10:45Z</time>
      </trkpt>
      <trkpt lat="48.77048397436738" lon="9.063619030639529">
        <ele>486.07999999999998</ele>
        <time>2014-04-13T11:10:46Z</time>
      </trkpt>
      <trkpt lat="48.77099895849824" lon="9.062723005190492">
        <ele>487.05000000000001</ele>
        <time>2014-04-13T11:12:00Z</time>
      </trkpt>
      <trkpt lat="48.771194005385041" lon="9.062321009114385">
        <ele>491.37</ele>
        <time>2014-04-13T11:12:29Z</time>
      </trkpt>
      <trkpt lat="48.771899007260799" lon="9.060986023396254">
        <ele>494.25999999999999</ele>
        <time>2014-04-13T11:14:08Z</time>
      </trkpt>
      <trkpt lat="48.771923985332251" lon="9.06093598343432">
        <ele>490.88999999999999</ele>
        <time>2014-04-13T11:14:11Z</time>
      </trkpt>
      <trkpt lat="48.771944018080831" lon="9.06089298427105">
        <ele>494.74000000000001</ele>
        <time>2014-04-13T11:14:13Z</time>
      </trkpt>
      <trkpt lat="48.771962961181998" lon="9.060845039784908">
        <ele>491.37</ele>
        <time>2014-04-13T11:14:16Z</time>
      </trkpt>
      <trkpt lat="48.771978970617056" lon="9.060817966237664">
        <ele>496.18000000000001</ele>
        <time>2014-04-13T11:14:18Z</time>
      </trkpt>
      <trkpt lat="48.772062035277486" lon="9.060662984848023">
        <ele>496.66000000000003</ele>
        <time>2014-04-13T11:14:31Z</time>
      </trkpt>
      <trkpt lat="48.772174017503858" lon="9.060491994023323">
        <ele>497.62</ele>
        <time>2014-04-13T11:14:44Z</time>
      </trkpt>
      <trkpt lat="48.772376021370292" lon="9.060088992118835">
        <ele>499.06</ele>
        <time>2014-04-13T11:15:15Z</time>
      </trkpt>
      <trkpt lat="48.772379960864782" lon="9.060080023482442">
        <ele>495.69999999999999</ele>
        <time>2014-04-13T11:15:16Z</time>
      </trkpt>
      <trkpt lat="48.772529996931553" lon="9.059846000745893">
        <ele>499.06</ele>
        <time>2014-04-13T11:15:32Z</time>
      </trkpt>
      <trkpt lat="48.772849012166262" lon="9.059709962457418">
        <ele>495.69999999999999</ele>
        <time>2014-04-13T11:20:49Z</time>
      </trkpt>
      <trkpt lat="48.772361017763615" lon="9.058748977258802">
        <ele>494.25999999999999</ele>
        <time>2014-04-13T11:22:58Z</time>
      </trkpt>
      <trkpt lat="48.772152978926897" lon="9.05810197815299">
        <ele>487.52999999999997</ele>
        <time>2014-04-13T11:24:04Z</time>
      </trkpt>
      <trkpt lat="48.772259010002017" lon="9.057696964591742">
        <ele>483.19999999999999</ele>
        <time>2014-04-13T11:24:53Z</time>
      </trkpt>
      <trkpt lat="48.772461013868451" lon="9.057595962658525">
        <ele>478.38999999999999</ele>
        <time>2014-04-13T11:25:27Z</time>
      </trkpt>
      <trkpt lat="48.772811964154243" lon="9.057701993733645">
        <ele>469.74000000000001</ele>
        <time>2014-04-13T11:26:21Z</time>
      </trkpt>
      <trkpt lat="48.773338012397289" lon="9.058392997831106">
        <ele>461.56999999999999</ele>
        <time>2014-04-13T11:27:50Z</time>
      </trkpt>
      <trkpt lat="48.773990962654352" lon="9.059162037447095">
        <ele>446.67000000000002</ele>
        <time>2014-04-13T11:29:36Z</time>
      </trkpt>
      <trkpt lat="48.775064013898373" lon="9.060129979625344">
        <ele>435.61000000000001</ele>
        <time>2014-04-13T11:31:35Z</time>
      </trkpt>
      <trkpt lat="48.775193011388183" lon="9.060140959918499">
        <ele>432.25</ele>
        <time>2014-04-13T11:31:47Z</time>
      </trkpt>
      <trkpt lat="48.775728028267622" lon="9.059810964390636">
        <ele>431.29000000000002</ele>
        <time>2014-04-13T11:32:48Z</time>
      </trkpt>
      <trkpt lat="48.775960961356759" lon="9.059571996331215">
        <ele>434.64999999999998</ele>
        <time>2014-04-13T11:33:08Z</time>
      </trkpt>
      <trkpt lat="48.775971019640565" lon="9.059566967189312">
        <ele>430.81</ele>
        <time>2014-04-13T11:33:09Z</time>
      </trkpt>
      <trkpt lat="48.776319958269596" lon="9.05977601185441">
        <ele>434.64999999999998</ele>
        <time>2014-04-13T11:33:40Z</time>
      </trkpt>
      <trkpt lat="48.776404028758407" lon="9.059869972988963">
        <ele>430.81</ele>
        <time>2014-04-13T11:33:52Z</time>
      </trkpt>
      <trkpt lat="48.776169000193477" lon="9.060279009863734">
        <ele>430.32999999999998</ele>
        <time>2014-04-13T11:36:15Z</time>
      </trkpt>
    </trkseg>
  </trk>

</gpx>